createdAt,value
2019-01-14T00:04:32.147Z,2.53
2019-01-14T00:09:36.400Z,2.73
2019-01-14T00:14:40.682Z,2.90
2019-01-14T00:19:44.935Z,3.03
2019-01-14T00:24:49.107Z,2.47
2019-01-14T00:29:53.357Z,2.70
2019-01-14T00:34:57.542Z,2.97
2019-01-14T00:40:01.707Z,3.20
2019-01-14T00:45:06.871Z,3.33
2019-01-14T00:50:12.653Z,3.20
2019-01-14T00:55:16.892Z,3.50
2019-01-14T01:00:24.745Z,3.17
2019-01-14T01:05:28.918Z,3.57
2019-01-14T01:10:33.071Z,4.23
2019-01-14T01:15:37.257Z,3.50
2019-01-14T01:20:41.430Z,3.57
2019-01-14T01:25:45.646Z,3.50
2019-01-14T01:30:49.826Z,3.13
2019-01-14T01:35:53.995Z,3.37
2019-01-14T01:40:58.170Z,3.03
2019-01-14T01:46:02.357Z,4.00
2019-01-14T01:51:06.528Z,3.67
2019-01-14T01:56:10.714Z,4.10
2019-01-14T02:01:15.083Z,3.57
2019-01-14T02:06:19.255Z,4.47
2019-01-14T02:11:23.408Z,3.93
2019-01-14T02:16:27.590Z,3.97
2019-01-14T02:21:31.759Z,4.37
2019-01-14T02:26:35.927Z,4.17
2019-01-14T02:31:40.099Z,4.23
2019-01-14T02:36:48.393Z,3.73
2019-01-14T02:41:50.167Z,4.80
2019-01-14T02:46:54.376Z,3.83
2019-01-14T02:51:58.555Z,4.47
2019-01-14T02:57:02.817Z,4.53
2019-01-14T03:02:07.275Z,3.73
2019-01-14T03:07:11.455Z,4.10
2019-01-14T03:12:15.672Z,5.13
2019-01-14T03:17:19.947Z,4.00
2019-01-14T03:22:24.253Z,4.40
2019-01-14T03:27:28.437Z,3.87
2019-01-14T03:32:32.611Z,4.30
2019-01-14T03:37:36.857Z,4.00
2019-01-14T03:42:41.028Z,4.07
2019-01-14T03:47:45.207Z,4.77
2019-01-14T03:52:49.586Z,4.10
2019-01-14T03:57:54.237Z,3.57
2019-01-14T04:02:58.480Z,4.00
2019-01-14T04:08:02.651Z,4.13
2019-01-14T04:13:06.807Z,4.70
2019-01-14T04:18:11.056Z,3.87
2019-01-14T04:23:15.250Z,4.20
2019-01-14T04:28:19.471Z,3.27
2019-01-14T04:33:23.644Z,4.07
2019-01-14T04:38:27.824Z,3.87
2019-01-14T04:43:32.009Z,4.17
2019-01-14T04:48:36.187Z,3.50
2019-01-14T04:53:40.364Z,3.00
2019-01-14T04:58:44.539Z,3.27
2019-01-14T05:03:48.739Z,3.60
2019-01-14T05:08:52.911Z,3.73
2019-01-14T05:13:57.069Z,3.70
2019-01-14T05:19:01.316Z,4.27
2019-01-14T05:24:05.557Z,3.43
2019-01-14T05:29:09.794Z,3.90
2019-01-14T05:34:13.975Z,3.63
2019-01-14T05:39:18.224Z,4.07
2019-01-14T05:44:22.415Z,3.90
2019-01-14T05:49:26.604Z,3.80
2019-01-14T05:54:30.839Z,3.77
2019-01-14T05:59:35.020Z,3.80
2019-01-14T06:04:39.191Z,4.00
2019-01-14T06:09:43.371Z,3.87
2019-01-14T06:14:47.560Z,3.63
2019-01-14T06:19:52.027Z,3.27
2019-01-14T06:24:56.204Z,3.17
2019-01-14T06:30:00.371Z,3.70
2019-01-14T06:35:05.019Z,2.73
2019-01-14T06:40:10.831Z,2.20
2019-01-14T06:45:15.243Z,2.50
2019-01-14T06:50:20.206Z,2.63
2019-01-14T06:55:24.375Z,3.27
2019-01-14T07:00:29.103Z,2.73
2019-01-14T07:05:33.291Z,3.00
2019-01-14T07:10:37.454Z,2.90
2019-01-14T07:15:41.630Z,3.10
2019-01-14T07:20:45.827Z,2.73
2019-01-14T07:25:50.031Z,2.43
2019-01-14T07:30:54.349Z,2.27
2019-01-14T07:35:58.545Z,2.90
2019-01-14T07:41:02.726Z,1.40
2019-01-14T07:46:06.926Z,1.03
2019-01-14T07:51:11.134Z,1.37
2019-01-14T07:56:15.790Z,1.77
2019-01-14T08:01:19.967Z,1.93
2019-01-14T08:06:24.217Z,2.10
2019-01-14T08:11:28.403Z,2.13
2019-01-14T08:16:32.595Z,1.93
2019-01-14T08:21:36.791Z,1.90
2019-01-14T08:26:41.055Z,1.77
2019-01-14T08:31:45.362Z,1.70
2019-01-14T08:36:49.628Z,1.50
2019-01-14T08:41:58.344Z,1.83
2019-01-14T08:47:02.591Z,2.40
2019-01-14T08:52:06.851Z,2.27
2019-01-14T08:57:11.207Z,1.80
2019-01-14T09:02:15.382Z,1.80
2019-01-14T09:07:19.595Z,1.53
2019-01-14T09:12:23.756Z,1.50
2019-01-14T09:17:27.947Z,1.80
2019-01-14T09:22:32.119Z,1.20
2019-01-14T09:27:36.364Z,1.60
2019-01-14T09:32:40.530Z,1.70
2019-01-14T09:37:44.703Z,1.53
2019-01-14T09:42:48.908Z,2.17
2019-01-14T09:47:53.202Z,1.63
2019-01-14T09:52:57.492Z,1.40
2019-01-14T09:58:02.028Z,1.50
2019-01-14T10:03:07.311Z,2.07
2019-01-14T10:08:11.687Z,1.77
2019-01-14T10:13:15.922Z,1.93
2019-01-14T10:18:20.109Z,1.93
2019-01-14T10:23:23.949Z,1.83
2019-01-14T10:28:27.673Z,2.17
2019-01-14T10:33:31.323Z,1.72
2019-01-14T10:38:34.961Z,1.90
2019-01-14T10:43:38.728Z,1.90
2019-01-14T10:48:42.457Z,2.27
2019-01-14T10:53:46.135Z,1.57
2019-01-14T10:58:49.779Z,1.87
2019-01-14T11:03:53.971Z,2.70
2019-01-14T11:09:05.694Z,2.23
2019-01-14T11:14:04.522Z,2.27
2019-01-14T11:19:08.791Z,2.43
2019-01-14T11:24:13.001Z,2.10
2019-01-14T11:29:17.167Z,2.23
2019-01-14T11:34:21.339Z,2.00
2019-01-14T11:39:25.581Z,1.80
2019-01-14T11:44:29.782Z,2.23
2019-01-14T11:49:33.960Z,1.83
2019-01-14T11:54:38.262Z,2.33
2019-01-14T11:59:43.944Z,2.27
2019-01-14T12:04:48.132Z,1.53
2019-01-14T12:09:52.298Z,2.00
2019-01-14T12:14:56.475Z,1.93
2019-01-14T12:20:00.743Z,2.20
2019-01-14T12:25:05.716Z,1.53
2019-01-14T12:30:32.033Z,1.43
2019-01-14T12:47:43.876Z,1.70
2019-01-14T12:52:48.092Z,1.90
2019-01-14T12:57:52.255Z,2.00
2019-01-14T13:02:58.418Z,1.60
2019-01-14T13:08:02.392Z,2.30
2019-01-14T13:13:06.729Z,1.40
2019-01-14T13:18:10.925Z,1.90
2019-01-14T13:23:15.104Z,1.50
2019-01-14T13:28:19.306Z,1.80
2019-01-14T13:33:23.517Z,1.73
2019-01-14T13:38:27.694Z,1.80
2019-01-14T13:43:31.881Z,1.60
2019-01-14T13:48:36.083Z,1.93
2019-01-14T13:53:40.291Z,1.40
2019-01-14T13:58:44.520Z,1.30
2019-01-14T14:03:48.776Z,1.60
2019-01-14T14:08:52.960Z,1.50
2019-01-14T14:13:58.108Z,1.30
2019-01-14T14:19:02.373Z,1.97
2019-01-14T14:24:06.548Z,1.27
2019-01-14T14:29:11.077Z,1.50
2019-01-14T14:34:15.277Z,1.67
2019-01-14T14:39:19.435Z,2.00
2019-01-14T14:44:23.827Z,1.70
2019-01-14T14:49:28.036Z,2.03
2019-01-14T14:54:32.247Z,1.63
2019-01-14T14:59:36.455Z,1.93
2019-01-14T15:04:40.647Z,2.00
2019-01-14T15:09:44.981Z,1.80
2019-01-14T15:14:49.161Z,1.40
2019-01-14T15:19:53.429Z,1.30
2019-01-14T15:24:57.668Z,1.73
2019-01-14T15:30:01.881Z,2.17
2019-01-14T15:35:06.355Z,1.73
2019-01-14T15:40:12.008Z,1.90
2019-01-14T15:45:17.380Z,1.93
2019-01-14T15:50:21.569Z,1.93
2019-01-14T15:55:28.279Z,2.13
2019-01-14T16:00:32.496Z,2.67
2019-01-14T16:05:36.700Z,1.90
2019-01-14T16:10:40.983Z,2.00
2019-01-14T16:15:45.297Z,2.33
2019-01-14T16:20:49.579Z,2.03
2019-01-14T16:25:53.858Z,2.40
2019-01-14T16:30:58.119Z,1.90
2019-01-14T16:36:02.397Z,1.80
2019-01-14T16:41:06.617Z,2.20
2019-01-14T16:46:10.942Z,2.07
2019-01-14T16:51:15.228Z,1.20
2019-01-14T16:56:19.445Z,1.83
2019-01-14T17:01:23.643Z,2.03
2019-01-14T17:06:27.841Z,1.50
2019-01-14T17:11:32.110Z,2.20
2019-01-14T17:16:37.437Z,2.00
2019-01-14T17:21:41.811Z,1.30
2019-01-14T17:26:45.987Z,2.00
2019-01-14T17:31:50.296Z,1.60
2019-01-14T17:36:54.500Z,2.73
2019-01-14T17:41:59.154Z,1.80
2019-01-14T17:47:03.349Z,1.80
2019-01-14T17:52:07.599Z,1.67
2019-01-14T17:57:11.935Z,2.20
2019-01-14T18:02:16.298Z,1.60
2019-01-14T18:07:20.737Z,2.10
2019-01-14T18:12:24.919Z,1.90
2019-01-14T18:17:29.219Z,1.97
2019-01-14T18:22:33.384Z,2.23
2019-01-14T18:27:37.728Z,2.73
2019-01-14T18:32:41.904Z,2.10
2019-01-14T18:37:46.194Z,2.47
2019-01-14T18:42:50.394Z,2.63
2019-01-14T18:47:54.606Z,2.57
2019-01-14T18:52:58.865Z,2.63
2019-01-14T18:58:03.131Z,3.07
2019-01-14T19:03:07.422Z,1.97
2019-01-14T19:08:11.778Z,2.50
2019-01-14T19:13:16.160Z,2.47
2019-01-14T19:18:20.355Z,1.93
2019-01-14T19:23:24.541Z,1.80
2019-01-14T19:28:28.791Z,2.40
2019-01-14T19:33:32.973Z,2.10
2019-01-14T19:38:37.307Z,2.93
2019-01-14T19:43:41.524Z,2.30
2019-01-14T19:48:45.791Z,2.50
2019-01-14T19:53:50.013Z,2.20
2019-01-14T19:58:54.226Z,3.10
2019-01-14T20:03:58.549Z,2.13
2019-01-14T20:09:03.217Z,2.47
2019-01-14T20:14:07.633Z,3.40
2019-01-14T20:19:11.844Z,3.90
2019-01-14T20:24:16.011Z,2.53
2019-01-14T20:29:20.223Z,2.40
2019-01-14T20:34:24.591Z,2.83
2019-01-14T20:39:28.776Z,2.80
2019-01-14T20:44:33.070Z,2.90
2019-01-14T20:49:37.280Z,2.40
2019-01-14T20:54:41.540Z,3.03
2019-01-14T20:59:45.824Z,2.30
2019-01-14T21:04:50.247Z,2.27
2019-01-14T21:09:54.574Z,2.37
2019-01-14T21:14:58.871Z,1.90
2019-01-14T21:20:03.095Z,2.10
2019-01-14T21:25:08.648Z,1.87
2019-01-14T21:30:16.200Z,1.77
2019-01-14T21:35:20.526Z,2.20
2019-01-14T21:40:25.015Z,3.00
2019-01-14T21:45:29.213Z,2.40
2019-01-14T21:50:33.620Z,2.10
2019-01-14T21:55:37.855Z,3.10
2019-01-14T22:00:42.092Z,2.73
2019-01-14T22:05:47.897Z,2.93
2019-01-14T22:10:52.288Z,3.00
2019-01-14T22:15:56.470Z,2.93
2019-01-14T22:21:00.690Z,2.67
2019-01-14T22:26:04.895Z,2.70
2019-01-14T22:31:09.100Z,2.30
2019-01-14T22:36:13.281Z,2.53
2019-01-14T22:41:17.532Z,2.80
2019-01-14T22:46:21.848Z,2.53
2019-01-14T22:51:26.040Z,2.40
2019-01-14T22:56:30.223Z,2.10
2019-01-14T23:01:39.587Z,2.30
2019-01-14T23:06:43.797Z,2.13
2019-01-14T23:11:53.035Z,2.70
2019-01-14T23:16:53.871Z,2.50
2019-01-14T23:21:58.047Z,2.80
2019-01-14T23:27:02.226Z,2.60
2019-01-14T23:32:06.417Z,2.47
2019-01-14T23:37:10.632Z,3.30
2019-01-14T23:42:14.892Z,2.33
2019-01-14T23:47:19.268Z,2.50
2019-01-14T23:52:23.560Z,2.80
2019-01-14T23:57:27.789Z,2.17
